Meteo Giornale » Osservazioni meteo Argentina » Santiago Del Estero Aero
ore: 11:00 - Osservazioni Meteo Santiago Del Estero Aero
Lat. 27° 46' S Lon. 64° 18' W Alt. 198 metri s.l.m.
20 °C
Sereno
Temp. 24 Ore
9 °C
29 °C
Sud-Est
9.3 Km/h
Dew point 13 °C
Umidità 64 %
Visibilità 10 Km
Il sole sorge alle ore 07:30
Il sole tramonta alle ore 19:03
| Data e Ora | Cielo e Fenomeni | T °C | DP °C | Um. % | Pres. hPa | Vis. km | Vento km/h | |
|---|---|---|---|---|---|---|---|---|
| Oggi h: 11:00 | Sereno | 20 | 13 | 64 | 1022 | 10 | SE 9.3 | |
| Oggi h: 10:00 | Sereno | 19 | 13 | 68 | 1022 | 10 | E/SE 9.3 | |
| Oggi h: 09:00 | Sereno | 14 | 12 | 87 | 1022 | 10 | N 3.7 | |
| Oggi h: 08:00 | Sereno | 10 | 9 | 93 | 1021 | 7 | N 3.7 | |
| Oggi h: 07:00 | Sereno | 9 | 8 | 93 | 1020 | 7 | N 5.5 | |
| Oggi h: 06:00 | Sereno | 11 | 9 | 87 | 1020 | 7 | N 3.7 | |
| Oggi h: 05:00 | Sereno | 13 | 11 | 87 | 1019 | 10 | N 5.5 | |
| Oggi h: 04:00 | Sereno | 13 | 11 | 87 | 1019 | 10 | O 7.4 | |
| Oggi h: 03:00 | Sereno | 14 | 11 | 82 | 1019 | 10 | S 11.1 | |
| Oggi h: 02:00 | Sereno | 17 | 12 | 72 | 1020 | 10 | S 7.4 | |
| Oggi h: 01:00 | Sereno | 17 | 13 | 77 | 1019 | 10 | S/SE 11.1 | |
| Oggi h: 00:00 | Sereno | 16 | 11 | 72 | 1019 | 10 | S 11.1 | |
| Ieri h: 23:00 | Sereno | 18 | 13 | 72 | 1017 | 10 | SO 7.4 | |
| Ieri h: 22:00 | Sereno | 21 | 14 | 64 | 1016 | 8 | E/SE 13 | |
| Ieri h: 21:00 | Sereno | 24 | 13 | 50 | 1015 | 8 | SE 20.3 | |
| Ieri h: 20:00 | Sereno | 25 | 14 | 50 | 1014 | 10 | S/SE 11.1 | |
| Ieri h: 19:00 | Poco Nuvoloso | 27 | 8 | 30 | 1013 | 10 | S/SE 16.7 | |
| Ieri h: 18:00 | Poco Nuvoloso | 29 | 11 | 32 | 1012 | 10 | N 3.7 | |
| Ieri h: 17:00 | Poco Nuvoloso | 29 | 12 | 35 | 1011 | 10 | SE 11.1 | |
| Ieri h: 16:00 | Poco Nuvoloso | 29 | 14 | 39 | 1010 | 10 | S/SE 18.5 | |
| Ieri h: 15:00 | Poco Nuvoloso | 28 | 15 | 45 | 1010 | 10 | SE 20.3 | |
| Ieri h: 14:00 | Poco Nuvoloso | 27 | 16 | 50 | 1012 | 10 | E/SE 11.1 | |
| Ieri h: 13:00 | Poco Nuvoloso | 25 | 15 | 53 | 1012 | 10 | N 3.7 | |
| Ieri h: 12:00 | Poco Nuvoloso | 22 | 16 | 68 | 1012 | 10 | N 3.7 | |



